createdAt,value
2022-08-05T00:02:30.630Z,98464.16
2022-08-05T00:06:35.969Z,98471.63
2022-08-05T00:10:38.430Z,98472.69
2022-08-05T00:14:41.026Z,98467.47
2022-08-05T00:18:46.157Z,98471.31
2022-08-05T00:22:57.515Z,98472.00
2022-08-05T00:27:04.793Z,98467.13
2022-08-05T00:31:14.339Z,98464.84
2022-08-05T00:35:16.747Z,98458.97
2022-08-05T00:39:24.484Z,98462.28
2022-08-05T00:43:29.223Z,98466.59
2022-08-05T00:47:56.495Z,98463.75
2022-08-05T00:52:07.438Z,98463.75
2022-08-05T00:56:09.792Z,98462.16
2022-08-05T01:00:13.315Z,98464.34
2022-08-05T01:04:20.159Z,98459.13
2022-08-05T01:08:43.333Z,98464.56
2022-08-05T01:13:00.392Z,98462.63
2022-08-05T01:17:39.928Z,98462.63
2022-08-05T01:22:24.047Z,98472.00
2022-08-05T01:26:53.034Z,98464.69
2022-08-05T01:31:11.556Z,98465.25
2022-08-05T01:35:51.680Z,98462.06
2022-08-05T01:39:47.303Z,98458.91
2022-08-05T01:44:12.559Z,98460.69
2022-08-05T01:48:19.224Z,98460.25
2022-08-05T01:52:24.098Z,98460.25
2022-08-05T01:58:09.314Z,98468.66
2022-08-05T02:00:59.693Z,98474.03
2022-08-05T02:05:11.854Z,98472.47
2022-08-05T02:09:16.478Z,98474.34
2022-08-05T02:13:53.800Z,98475.50
2022-08-05T02:18:31.228Z,98489.78
2022-08-05T02:22:32.712Z,98494.13
2022-08-05T02:26:54.675Z,98486.72
2022-08-05T02:31:02.424Z,98483.38
2022-08-05T02:35:13.570Z,98479.50
2022-08-05T02:39:21.409Z,98474.47
2022-08-05T02:43:25.519Z,98466.97
2022-08-05T02:47:58.761Z,98465.38
2022-08-05T02:52:04.089Z,98460.69
2022-08-05T02:56:15.952Z,98462.22
2022-08-05T03:00:21.683Z,98454.63
2022-08-05T03:04:24.704Z,98453.38
2022-08-05T03:08:29.991Z,98454.75
2022-08-05T03:12:32.957Z,98459.19
2022-08-05T03:16:37.264Z,98453.56
2022-08-05T03:20:44.585Z,98463.63
2022-08-05T03:24:52.733Z,98458.50
2022-08-05T03:28:56.537Z,98456.41
2022-08-05T03:33:03.152Z,98471.19
2022-08-05T03:37:07.690Z,98460.97
2022-08-05T03:41:10.976Z,98462.03
2022-08-05T03:45:22.423Z,98460.59
2022-08-05T03:49:31.103Z,98466.53
2022-08-05T03:55:54.208Z,98467.94
2022-08-05T03:58:18.322Z,98463.31
2022-08-05T04:02:38.549Z,98461.06
2022-08-05T04:06:51.395Z,98458.69
2022-08-05T04:11:04.025Z,98464.84
2022-08-05T04:15:08.394Z,98472.72
2022-08-05T04:19:18.066Z,98468.00
2022-08-05T04:24:04.860Z,98475.28
2022-08-05T04:27:56.872Z,98475.56
2022-08-05T04:32:00.434Z,98479.47
2022-08-05T04:36:10.931Z,98477.16
2022-08-05T04:40:26.867Z,98481.31
2022-08-05T04:44:30.187Z,98478.34
2022-08-05T04:48:33.178Z,98474.31
2022-08-05T04:52:37.076Z,98473.06
2022-08-05T04:56:40.564Z,98485.16
2022-08-05T05:00:52.779Z,98480.50
2022-08-05T05:05:02.187Z,98477.59
2022-08-05T05:09:08.191Z,98473.56
2022-08-05T05:13:15.476Z,98463.97
2022-08-05T05:22:23.817Z,98480.31
2022-08-05T05:26:32.800Z,98483.81
2022-08-05T05:30:35.239Z,98492.22
2022-08-05T05:34:37.197Z,98494.13
2022-08-05T05:38:39.847Z,98494.78
2022-08-05T05:42:47.130Z,98494.59
2022-08-05T05:46:49.989Z,98497.00
2022-08-05T05:50:53.388Z,98500.88
2022-08-05T05:54:55.767Z,98496.81
2022-08-05T05:58:58.012Z,98494.34
2022-08-05T06:03:40.757Z,98495.97
2022-08-05T06:07:41.753Z,98501.28
2022-08-05T06:12:01.336Z,98504.09
2022-08-05T06:16:28.161Z,98505.06
2022-08-05T06:20:28.057Z,98500.75
2022-08-05T06:24:31.655Z,98505.22
2022-08-05T06:28:33.842Z,98507.25
2022-08-05T06:32:36.141Z,98510.03
2022-08-05T06:36:57.512Z,98512.81
2022-08-05T06:41:00.602Z,98514.41
2022-08-05T06:45:05.463Z,98511.59
2022-08-05T06:49:10.285Z,98505.44
2022-08-05T06:53:22.384Z,98512.25
2022-08-05T06:58:02.677Z,98503.63
2022-08-05T07:01:52.771Z,98511.19
2022-08-05T07:05:56.607Z,98506.81
2022-08-05T07:09:59.049Z,98509.41
2022-08-05T07:14:29.495Z,98504.88
2022-08-05T07:18:34.184Z,98504.31
2022-08-05T07:22:37.083Z,98507.75
2022-08-05T07:26:40.705Z,98500.81
2022-08-05T07:30:50.401Z,98497.81
2022-08-05T07:34:57.894Z,98498.88
2022-08-05T07:39:03.257Z,98489.88
2022-08-05T07:43:14.581Z,98488.59
2022-08-05T07:47:25.817Z,98500.56
2022-08-05T07:51:36.901Z,98483.31
2022-08-05T07:55:44.360Z,98489.06
2022-08-05T08:00:05.731Z,98488.72
2022-08-05T08:04:16.617Z,98491.66
2022-08-05T08:08:26.473Z,98483.66
2022-08-05T08:12:48.862Z,98483.44
2022-08-05T08:16:53.349Z,98476.97
2022-08-05T08:21:02.098Z,98470.00
2022-08-05T08:25:16.009Z,98473.63
2022-08-05T08:29:29.613Z,98467.31
2022-08-05T08:33:41.391Z,98474.06
2022-08-05T08:37:44.959Z,98471.41
2022-08-05T08:41:59.934Z,98470.75
2022-08-05T08:46:05.872Z,98462.56
2022-08-05T08:50:31.580Z,98468.53
2022-08-05T08:54:36.697Z,98467.84
2022-08-05T08:58:44.465Z,98465.59
2022-08-05T09:02:51.095Z,98466.00
2022-08-05T09:06:54.524Z,98460.97
2022-08-05T09:10:57.335Z,98459.84
2022-08-05T09:15:06.089Z,98460.25
2022-08-05T09:19:09.229Z,98459.13
2022-08-05T09:23:21.699Z,98454.03
2022-08-05T09:28:04.125Z,98447.38
2022-08-05T09:32:41.866Z,98439.91
2022-08-05T09:36:55.186Z,98445.00
2022-08-05T09:41:07.097Z,98439.91
2022-08-05T09:46:04.821Z,98429.69
2022-08-05T09:49:40.442Z,98434.38
2022-08-05T09:53:59.287Z,98423.69
2022-08-05T09:58:15.187Z,98419.63
2022-08-05T10:02:38.086Z,98405.16
2022-08-05T10:06:55.086Z,98406.59
2022-08-05T10:11:05.039Z,98405.25
2022-08-05T10:15:25.600Z,98404.47
2022-08-05T10:20:02.816Z,98396.13
2022-08-05T10:24:00.697Z,98387.47
2022-08-05T10:28:13.104Z,98393.28
2022-08-05T10:32:53.044Z,98391.28
2022-08-05T10:36:49.342Z,98382.91
2022-08-05T10:41:05.999Z,98384.47
2022-08-05T10:45:23.732Z,98361.31
2022-08-05T10:49:48.723Z,98362.81
2022-08-05T10:53:51.353Z,98352.78
2022-08-05T10:58:35.713Z,98358.56
2022-08-05T11:03:00.321Z,98362.13
2022-08-05T11:07:33.132Z,98357.91
2022-08-05T11:11:54.051Z,98342.94
2022-08-05T11:16:23.127Z,98352.72
2022-08-05T11:20:51.296Z,98342.34
2022-08-05T11:26:04.742Z,98342.66
2022-08-05T11:30:15.161Z,98331.47
2022-08-05T11:34:36.650Z,98344.66
2022-08-05T11:38:45.977Z,98326.53
2022-08-05T11:42:57.350Z,98314.91
2022-08-05T11:47:11.115Z,98312.91
2022-08-05T12:39:37.098Z,98261.56
2022-08-05T12:44:48.753Z,98262.19
2022-08-05T12:49:13.032Z,98255.00
2022-08-05T12:53:17.034Z,98246.97
2022-08-05T12:57:23.443Z,98229.81
2022-08-05T13:02:00.556Z,98245.22
2022-08-05T13:05:50.145Z,98242.22
2022-08-05T13:09:58.973Z,98246.75
2022-08-05T13:14:04.930Z,98231.75
2022-08-05T13:18:09.068Z,98221.19
2022-08-05T13:22:13.196Z,98220.28
2022-08-05T13:26:15.322Z,98220.00
2022-08-05T13:30:34.138Z,98210.53
2022-08-05T13:34:38.210Z,98209.44
2022-08-05T13:38:43.280Z,98206.44
2022-08-05T13:42:45.352Z,98202.25
2022-08-05T13:47:08.361Z,98216.31
2022-08-05T13:51:13.652Z,98203.34
2022-08-05T13:55:41.965Z,98207.69
2022-08-05T13:59:57.166Z,98203.13
2022-08-05T14:04:20.069Z,98186.66
2022-08-05T14:08:27.477Z,98183.81
2022-08-05T14:12:32.536Z,98180.47
2022-08-05T14:16:35.190Z,98181.78
2022-08-05T14:20:37.189Z,98171.41
2022-08-05T14:24:40.156Z,98157.63
2022-08-05T14:28:51.808Z,98156.34
2022-08-05T14:32:54.554Z,98156.25
2022-08-05T14:36:58.932Z,98153.28
2022-08-05T14:41:06.850Z,98149.13
2022-08-05T14:45:10.248Z,98150.88
2022-08-05T14:49:12.632Z,98147.31
2022-08-05T14:53:14.962Z,98135.41
2022-08-05T14:57:17.080Z,98137.66
2022-08-05T15:01:22.731Z,98135.47
2022-08-05T15:06:07.999Z,98132.03
2022-08-05T15:10:09.918Z,98125.31
2022-08-05T15:14:12.143Z,98118.28
2022-08-05T15:18:35.542Z,98111.72
2022-08-05T15:22:40.557Z,98096.44
2022-08-05T15:26:46.984Z,98104.56
2022-08-05T15:30:53.118Z,98094.00
2022-08-05T15:34:57.087Z,98097.78
2022-08-05T15:41:00.431Z,98090.78
2022-08-05T15:43:21.930Z,98094.56
2022-08-05T15:47:24.978Z,98096.81
2022-08-05T15:52:10.309Z,98103.19
2022-08-05T15:56:02.706Z,98107.19
2022-08-05T16:00:08.255Z,98091.78
2022-08-05T16:04:10.869Z,98094.16
2022-08-05T16:08:16.098Z,98087.69
2022-08-05T16:12:19.894Z,98085.13
2022-08-05T16:16:25.492Z,98090.72
2022-08-05T16:20:27.953Z,98089.31
2022-08-05T16:24:40.186Z,98089.56
2022-08-05T16:28:44.173Z,98091.56
2022-08-05T16:32:46.397Z,98089.41
2022-08-05T16:36:49.469Z,98099.84
2022-08-05T16:41:00.796Z,98092.56
2022-08-05T16:46:02.849Z,98095.69
2022-08-05T16:49:26.569Z,98092.81
2022-08-05T16:53:31.854Z,98096.88
2022-08-05T16:58:01.397Z,98101.47
2022-08-05T17:02:05.345Z,98112.41
2022-08-05T17:06:08.490Z,98129.75
2022-08-05T17:10:13.076Z,98105.53
2022-08-05T17:14:22.275Z,98111.91
2022-08-05T17:18:36.654Z,98105.94
2022-08-05T17:22:41.120Z,98116.34
2022-08-05T17:26:43.118Z,98115.59
2022-08-05T17:30:52.096Z,98119.09
2022-08-05T17:34:54.562Z,98127.06
2022-08-05T17:39:00.287Z,98124.63
2022-08-05T17:43:07.727Z,98124.81
2022-08-05T17:47:14.929Z,98140.66
2022-08-05T17:51:21.543Z,98145.16
2022-08-05T17:55:34.278Z,98140.50
2022-08-05T17:59:40.073Z,98148.53
2022-08-05T18:03:59.369Z,98147.66
2022-08-05T18:08:04.610Z,98153.00
2022-08-05T18:12:06.755Z,98155.47
2022-08-05T18:16:15.076Z,98176.31
2022-08-05T18:20:29.528Z,98172.19
2022-08-05T18:24:33.801Z,98185.66
2022-08-05T18:28:38.997Z,98193.78
2022-08-05T18:32:41.387Z,98196.31
2022-08-05T18:36:55.707Z,98199.28
2022-08-05T18:41:54.289Z,98204.13
2022-08-05T18:45:19.987Z,98208.97
2022-08-05T18:49:44.679Z,98215.75
2022-08-05T18:54:00.111Z,98235.81
2022-08-05T18:58:03.196Z,98241.81
2022-08-05T19:02:27.079Z,98245.38
2022-08-05T19:06:37.345Z,98253.28
2022-08-05T19:10:47.201Z,98259.28
2022-08-05T19:15:00.934Z,98250.72
2022-08-05T19:19:04.937Z,98256.25
2022-08-05T19:23:07.953Z,98268.03
2022-08-05T19:27:11.752Z,98263.41
2022-08-05T19:31:17.913Z,98271.25
2022-08-05T19:35:24.107Z,98265.03
2022-08-05T19:39:28.275Z,98278.38
2022-08-05T19:44:04.196Z,98280.75
2022-08-05T19:47:55.743Z,98287.06
2022-08-05T19:52:19.689Z,98280.75
2022-08-05T19:56:32.523Z,98284.69
2022-08-05T20:00:36.823Z,98283.91
2022-08-05T20:04:43.276Z,98285.06
2022-08-05T20:08:48.946Z,98290.50
2022-08-05T20:12:51.447Z,98287.69
2022-08-05T20:16:53.499Z,98286.50
2022-08-05T20:20:57.091Z,98291.94
2022-08-05T20:24:59.206Z,98300.09
2022-08-05T20:29:01.241Z,98305.13
2022-08-05T20:33:03.394Z,98299.56
2022-08-05T20:37:05.521Z,98302.25
2022-08-05T20:41:24.110Z,98304.22
2022-08-05T20:45:56.401Z,98303.75
2022-08-05T20:49:52.047Z,98304.91
2022-08-05T20:53:56.272Z,98312.91
2022-08-05T20:57:59.075Z,98320.00
2022-08-05T21:02:01.233Z,98321.44
2022-08-05T21:06:03.766Z,98324.81
2022-08-05T21:10:09.236Z,98326.81
2022-08-05T21:14:15.926Z,98331.50
2022-08-05T21:18:20.944Z,98327.28
2022-08-05T21:22:25.701Z,98335.69
2022-08-05T21:26:29.491Z,98338.56
2022-08-05T21:30:31.729Z,98340.81
2022-08-05T21:34:35.478Z,98337.53
2022-08-05T21:38:40.519Z,98347.94
2022-08-05T21:42:44.508Z,98350.78
2022-08-05T21:46:47.421Z,98348.69
2022-08-05T21:50:54.114Z,98346.47
2022-08-05T21:55:06.396Z,98357.22
2022-08-05T21:59:24.933Z,98346.38
2022-08-05T22:03:48.905Z,98351.53
2022-08-05T22:07:58.417Z,98353.56
2022-08-05T22:12:02.054Z,98350.47
2022-08-05T22:16:41.032Z,98356.19
2022-08-05T22:20:34.848Z,98362.69
2022-08-05T22:24:59.448Z,98357.88
2022-08-05T22:29:01.787Z,98364.44
2022-08-05T22:33:15.643Z,98358.00
2022-08-05T22:37:18.108Z,98358.06
2022-08-05T22:42:04.551Z,98349.25
2022-08-05T22:45:43.417Z,98345.75
2022-08-05T22:50:20.707Z,98347.03
2022-08-05T22:54:10.323Z,98345.25
2022-08-05T22:58:14.650Z,98339.88
2022-08-05T23:02:29.374Z,98348.59
2022-08-05T23:06:33.998Z,98351.00
2022-08-05T23:10:37.296Z,98346.97
2022-08-05T23:14:43.769Z,98339.56
2022-08-05T23:18:45.874Z,98340.28
2022-08-05T23:22:55.590Z,98341.75
2022-08-05T23:26:58.214Z,98344.00
2022-08-05T23:31:16.355Z,98335.88
2022-08-05T23:35:20.199Z,98337.75
2022-08-05T23:39:44.642Z,98336.53
2022-08-05T23:44:05.623Z,98339.91
2022-08-05T23:48:07.614Z,98337.69
2022-08-05T23:52:26.655Z,98341.00
2022-08-05T23:56:29.910Z,98336.22
